sensor_id;sensor_type;location;lat;lon;timestamp;P1;durP1;ratioP1;P2;durP2;ratioP2
69621;SDS011;56841;55.964;37.674;2023-04-24T00:00:54;42.88;;;12.43;;
69621;SDS011;56841;55.964;37.674;2023-04-24T00:03:26;47.85;;;12.13;;
69621;SDS011;56841;55.964;37.674;2023-04-24T00:05:53;52.55;;;13.10;;
69621;SDS011;56841;55.964;37.674;2023-04-24T00:08:20;53.28;;;13.68;;
69621;SDS011;56841;55.964;37.674;2023-04-24T00:10:46;51.03;;;13.23;;
69621;SDS011;56841;55.964;37.674;2023-04-24T00:13:12;55.22;;;13.20;;
69621;SDS011;56841;55.964;37.674;2023-04-24T00:15:38;51.17;;;11.80;;
69621;SDS011;56841;55.964;37.674;2023-04-24T00:18:03;42.70;;;12.70;;
69621;SDS011;56841;55.964;37.674;2023-04-24T00:20:29;50.97;;;12.00;;
69621;SDS011;56841;55.964;37.674;2023-04-24T00:22:57;52.80;;;12.98;;
69621;SDS011;56841;55.964;37.674;2023-04-24T00:25:23;44.20;;;11.10;;
69621;SDS011;56841;55.964;37.674;2023-04-24T00:27:49;46.97;;;12.00;;
69621;SDS011;56841;55.964;37.674;2023-04-24T00:30:15;41.28;;;11.10;;
69621;SDS011;56841;55.964;37.674;2023-04-24T00:32:41;38.78;;;12.10;;
69621;SDS011;56841;55.964;37.674;2023-04-24T00:35:07;48.03;;;12.88;;
69621;SDS011;56841;55.964;37.674;2023-04-24T00:37:33;52.17;;;11.23;;
69621;SDS011;56841;55.964;37.674;2023-04-24T00:39:59;52.53;;;11.30;;
69621;SDS011;56841;55.964;37.674;2023-04-24T00:42:25;47.63;;;11.15;;
69621;SDS011;56841;55.964;37.674;2023-04-24T00:44:51;47.15;;;11.63;;
69621;SDS011;56841;55.964;37.674;2023-04-24T00:47:19;43.40;;;11.40;;
69621;SDS011;56841;55.964;37.674;2023-04-24T00:49:47;48.90;;;11.93;;
69621;SDS011;56841;55.964;37.674;2023-04-24T00:52:13;53.47;;;11.00;;
69621;SDS011;56841;55.964;37.674;2023-04-24T00:54:43;43.22;;;10.63;;
69621;SDS011;56841;55.964;37.674;2023-04-24T00:57:10;52.75;;;10.27;;
69621;SDS011;56841;55.964;37.674;2023-04-24T00:59:36;53.58;;;10.63;;
69621;SDS011;56841;55.964;37.674;2023-04-24T01:02:03;46.25;;;10.10;;
69621;SDS011;56841;55.964;37.674;2023-04-24T01:04:29;44.58;;;10.25;;
69621;SDS011;56841;55.964;37.674;2023-04-24T01:06:55;38.10;;;9.60;;
69621;SDS011;56841;55.964;37.674;2023-04-24T01:09:21;45.80;;;10.63;;
69621;SDS011;56841;55.964;37.674;2023-04-24T01:11:50;48.30;;;10.43;;
69621;SDS011;56841;55.964;37.674;2023-04-24T01:14:16;41.08;;;10.38;;
69621;SDS011;56841;55.964;37.674;2023-04-24T01:16:42;53.53;;;9.88;;
69621;SDS011;56841;55.964;37.674;2023-04-24T01:19:08;51.50;;;11.52;;
69621;SDS011;56841;55.964;37.674;2023-04-24T01:21:36;46.42;;;10.55;;
69621;SDS011;56841;55.964;37.674;2023-04-24T01:24:03;47.70;;;10.05;;
69621;SDS011;56841;55.964;37.674;2023-04-24T01:26:30;42.45;;;9.63;;
69621;SDS011;56841;55.964;37.674;2023-04-24T01:28:56;30.05;;;8.63;;
69621;SDS011;56841;55.964;37.674;2023-04-24T01:31:22;34.17;;;8.65;;
69621;SDS011;56841;55.964;37.674;2023-04-24T01:33:49;37.58;;;9.25;;
69621;SDS011;56841;55.964;37.674;2023-04-24T01:36:15;46.70;;;10.23;;
69621;SDS011;56841;55.964;37.674;2023-04-24T01:38:42;36.47;;;8.90;;
69621;SDS011;56841;55.964;37.674;2023-04-24T01:41:09;41.55;;;9.30;;
69621;SDS011;56841;55.964;37.674;2023-04-24T01:43:35;36.40;;;9.10;;
69621;SDS011;56841;55.964;37.674;2023-04-24T01:46:04;37.78;;;8.90;;
69621;SDS011;56841;55.964;37.674;2023-04-24T01:48:34;39.78;;;8.57;;
69621;SDS011;56841;55.964;37.674;2023-04-24T01:51:01;33.80;;;8.43;;
69621;SDS011;56841;55.964;37.674;2023-04-24T01:53:27;34.97;;;9.57;;
69621;SDS011;56841;55.964;37.674;2023-04-24T01:55:52;33.58;;;8.32;;
69621;SDS011;56841;55.964;37.674;2023-04-24T01:58:18;35.90;;;8.30;;
69621;SDS011;56841;55.964;37.674;2023-04-24T02:00:44;31.85;;;7.85;;
69621;SDS011;56841;55.964;37.674;2023-04-24T02:03:10;30.60;;;7.03;;
69621;SDS011;56841;55.964;37.674;2023-04-24T02:05:36;38.45;;;8.10;;
69621;SDS011;56841;55.964;37.674;2023-04-24T02:08:02;33.45;;;8.52;;
69621;SDS011;56841;55.964;37.674;2023-04-24T02:10:32;31.75;;;8.45;;
69621;SDS011;56841;55.964;37.674;2023-04-24T02:12:59;38.22;;;8.48;;
69621;SDS011;56841;55.964;37.674;2023-04-24T02:15:28;26.55;;;8.30;;
69621;SDS011;56841;55.964;37.674;2023-04-24T02:17:59;34.92;;;8.30;;
69621;SDS011;56841;55.964;37.674;2023-04-24T02:20:25;26.92;;;7.68;;
69621;SDS011;56841;55.964;37.674;2023-04-24T02:22:52;35.13;;;8.38;;
69621;SDS011;56841;55.964;37.674;2023-04-24T02:25:18;29.70;;;8.20;;
69621;SDS011;56841;55.964;37.674;2023-04-24T02:27:44;33.53;;;8.15;;
69621;SDS011;56841;55.964;37.674;2023-04-24T02:30:10;28.33;;;8.18;;
69621;SDS011;56841;55.964;37.674;2023-04-24T02:32:36;23.30;;;7.50;;
69621;SDS011;56841;55.964;37.674;2023-04-24T02:35:02;31.15;;;7.82;;
69621;SDS011;56841;55.964;37.674;2023-04-24T02:37:29;27.17;;;7.55;;
69621;SDS011;56841;55.964;37.674;2023-04-24T02:39:55;26.27;;;7.30;;
69621;SDS011;56841;55.964;37.674;2023-04-24T02:42:20;18.77;;;7.40;;
69621;SDS011;56841;55.964;37.674;2023-04-24T02:44:46;31.50;;;7.95;;
69621;SDS011;56841;55.964;37.674;2023-04-24T02:47:12;25.80;;;7.75;;
69621;SDS011;56841;55.964;37.674;2023-04-24T02:49:38;18.15;;;7.43;;
69621;SDS011;56841;55.964;37.674;2023-04-24T02:52:04;21.80;;;8.15;;
69621;SDS011;56841;55.964;37.674;2023-04-24T02:54:29;17.23;;;7.13;;
69621;SDS011;56841;55.964;37.674;2023-04-24T02:56:55;18.88;;;7.18;;
69621;SDS011;56841;55.964;37.674;2023-04-24T02:59:22;15.50;;;6.38;;
69621;SDS011;56841;55.964;37.674;2023-04-24T03:01:48;22.35;;;7.30;;
69621;SDS011;56841;55.964;37.674;2023-04-24T03:04:13;24.38;;;8.35;;
69621;SDS011;56841;55.964;37.674;2023-04-24T03:06:40;41.13;;;10.85;;
69621;SDS011;56841;55.964;37.674;2023-04-24T03:09:06;48.78;;;10.60;;
69621;SDS011;56841;55.964;37.674;2023-04-24T03:11:32;48.25;;;11.68;;
69621;SDS011;56841;55.964;37.674;2023-04-24T03:13:58;41.35;;;10.57;;
69621;SDS011;56841;55.964;37.674;2023-04-24T03:16:24;39.33;;;11.20;;
69621;SDS011;56841;55.964;37.674;2023-04-24T03:18:49;34.92;;;9.95;;
69621;SDS011;56841;55.964;37.674;2023-04-24T03:21:15;37.80;;;10.68;;
69621;SDS011;56841;55.964;37.674;2023-04-24T03:23:42;29.38;;;10.55;;
69621;SDS011;56841;55.964;37.674;2023-04-24T03:26:09;43.33;;;11.00;;
69621;SDS011;56841;55.964;37.674;2023-04-24T03:28:38;30.45;;;10.52;;
69621;SDS011;56841;55.964;37.674;2023-04-24T03:31:04;37.25;;;10.65;;
69621;SDS011;56841;55.964;37.674;2023-04-24T03:33:33;36.45;;;11.43;;
69621;SDS011;56841;55.964;37.674;2023-04-24T03:36:01;37.22;;;10.75;;
69621;SDS011;56841;55.964;37.674;2023-04-24T03:38:34;38.33;;;11.30;;
69621;SDS011;56841;55.964;37.674;2023-04-24T03:41:15;35.67;;;11.07;;
69621;SDS011;56841;55.964;37.674;2023-04-24T03:43:52;36.13;;;11.77;;
69621;SDS011;56841;55.964;37.674;2023-04-24T03:46:19;40.58;;;11.75;;
69621;SDS011;56841;55.964;37.674;2023-04-24T03:48:51;40.30;;;11.55;;
69621;SDS011;56841;55.964;37.674;2023-04-24T03:51:19;52.65;;;14.10;;
69621;SDS011;56841;55.964;37.674;2023-04-24T03:53:48;50.15;;;13.82;;
69621;SDS011;56841;55.964;37.674;2023-04-24T03:56:18;42.97;;;11.77;;
69621;SDS011;56841;55.964;37.674;2023-04-24T03:58:43;39.72;;;12.32;;
69621;SDS011;56841;55.964;37.674;2023-04-24T04:01:10;41.08;;;11.77;;
69621;SDS011;56841;55.964;37.674;2023-04-24T04:03:51;39.72;;;11.40;;
69621;SDS011;56841;55.964;37.674;2023-04-24T04:06:20;32.80;;;10.70;;
69621;SDS011;56841;55.964;37.674;2023-04-24T04:08:47;32.70;;;11.23;;
69621;SDS011;56841;55.964;37.674;2023-04-24T04:11:13;38.72;;;11.40;;
69621;SDS011;56841;55.964;37.674;2023-04-24T04:13:38;29.50;;;11.07;;
69621;SDS011;56841;55.964;37.674;2023-04-24T04:16:04;29.05;;;11.25;;
69621;SDS011;56841;55.964;37.674;2023-04-24T04:18:31;29.75;;;10.75;;
69621;SDS011;56841;55.964;37.674;2023-04-24T04:20:56;31.23;;;11.52;;
69621;SDS011;56841;55.964;37.674;2023-04-24T04:23:22;30.50;;;11.15;;
69621;SDS011;56841;55.964;37.674;2023-04-24T04:26:08;37.60;;;11.38;;
69621;SDS011;56841;55.964;37.674;2023-04-24T04:29:10;26.17;;;10.30;;
69621;SDS011;56841;55.964;37.674;2023-04-24T04:31:40;21.30;;;10.85;;
69621;SDS011;56841;55.964;37.674;2023-04-24T04:34:10;25.08;;;10.52;;
69621;SDS011;56841;55.964;37.674;2023-04-24T04:36:38;24.95;;;10.40;;
69621;SDS011;56841;55.964;37.674;2023-04-24T04:39:25;17.17;;;8.90;;
69621;SDS011;56841;55.964;37.674;2023-04-24T04:41:56;22.15;;;9.35;;
69621;SDS011;56841;55.964;37.674;2023-04-24T04:44:28;17.88;;;8.80;;
69621;SDS011;56841;55.964;37.674;2023-04-24T04:46:57;18.67;;;9.10;;
69621;SDS011;56841;55.964;37.674;2023-04-24T04:49:29;17.73;;;9.07;;
69621;SDS011;56841;55.964;37.674;2023-04-24T04:51:56;23.10;;;9.95;;
69621;SDS011;56841;55.964;37.674;2023-04-24T04:54:24;18.38;;;9.00;;
69621;SDS011;56841;55.964;37.674;2023-04-24T04:56:50;17.70;;;9.30;;
69621;SDS011;56841;55.964;37.674;2023-04-24T04:59:17;16.20;;;8.60;;
69621;SDS011;56841;55.964;37.674;2023-04-24T05:01:43;21.27;;;8.80;;
69621;SDS011;56841;55.964;37.674;2023-04-24T05:04:11;16.38;;;8.38;;
69621;SDS011;56841;55.964;37.674;2023-04-24T05:06:37;20.20;;;8.40;;
69621;SDS011;56841;55.964;37.674;2023-04-24T05:09:04;15.25;;;5.13;;
69621;SDS011;56841;55.964;37.674;2023-04-24T05:11:39;17.02;;;8.10;;
69621;SDS011;56841;55.964;37.674;2023-04-24T05:14:05;13.93;;;7.63;;
69621;SDS011;56841;55.964;37.674;2023-04-24T05:16:34;15.73;;;7.68;;
69621;SDS011;56841;55.964;37.674;2023-04-24T05:19:02;16.52;;;6.85;;
69621;SDS011;56841;55.964;37.674;2023-04-24T05:21:33;13.20;;;7.15;;
69621;SDS011;56841;55.964;37.674;2023-04-24T05:23:59;16.38;;;6.97;;
69621;SDS011;56841;55.964;37.674;2023-04-24T05:26:54;21.80;;;8.40;;
69621;SDS011;56841;55.964;37.674;2023-04-24T05:29:25;14.85;;;7.55;;
69621;SDS011;56841;55.964;37.674;2023-04-24T05:31:52;24.95;;;7.93;;
69621;SDS011;56841;55.964;37.674;2023-04-24T05:34:19;13.70;;;7.38;;
69621;SDS011;56841;55.964;37.674;2023-04-24T05:36:48;15.77;;;7.18;;
69621;SDS011;56841;55.964;37.674;2023-04-24T05:39:15;17.42;;;7.63;;
69621;SDS011;56841;55.964;37.674;2023-04-24T05:41:42;16.13;;;6.85;;
69621;SDS011;56841;55.964;37.674;2023-04-24T05:44:08;11.18;;;6.15;;
69621;SDS011;56841;55.964;37.674;2023-04-24T05:46:34;15.45;;;6.72;;
69621;SDS011;56841;55.964;37.674;2023-04-24T05:49:00;15.00;;;6.50;;
69621;SDS011;56841;55.964;37.674;2023-04-24T05:51:27;12.60;;;5.57;;
69621;SDS011;56841;55.964;37.674;2023-04-24T05:53:53;13.07;;;5.45;;
69621;SDS011;56841;55.964;37.674;2023-04-24T05:56:20;14.13;;;6.30;;
69621;SDS011;56841;55.964;37.674;2023-04-24T05:58:46;14.07;;;5.95;;
69621;SDS011;56841;55.964;37.674;2023-04-24T06:01:12;9.38;;;5.22;;
69621;SDS011;56841;55.964;37.674;2023-04-24T06:03:40;14.63;;;6.10;;
69621;SDS011;56841;55.964;37.674;2023-04-24T06:06:07;11.13;;;5.50;;
69621;SDS011;56841;55.964;37.674;2023-04-24T06:08:34;13.43;;;5.50;;
69621;SDS011;56841;55.964;37.674;2023-04-24T06:11:01;10.13;;;4.45;;
69621;SDS011;56841;55.964;37.674;2023-04-24T06:13:27;8.50;;;4.38;;
69621;SDS011;56841;55.964;37.674;2023-04-24T06:16:19;9.95;;;4.65;;
69621;SDS011;56841;55.964;37.674;2023-04-24T06:18:52;9.98;;;4.32;;
69621;SDS011;56841;55.964;37.674;2023-04-24T06:21:18;5.75;;;3.53;;
69621;SDS011;56841;55.964;37.674;2023-04-24T06:23:44;7.15;;;3.70;;
69621;SDS011;56841;55.964;37.674;2023-04-24T06:26:11;7.40;;;3.60;;
69621;SDS011;56841;55.964;37.674;2023-04-24T06:28:37;10.10;;;5.40;;
69621;SDS011;56841;55.964;37.674;2023-04-24T06:31:03;9.07;;;4.90;;
69621;SDS011;56841;55.964;37.674;2023-04-24T06:33:29;10.95;;;4.57;;
69621;SDS011;56841;55.964;37.674;2023-04-24T06:35:55;11.05;;;3.83;;
69621;SDS011;56841;55.964;37.674;2023-04-24T06:38:20;11.23;;;5.35;;
69621;SDS011;56841;55.964;37.674;2023-04-24T06:40:46;11.05;;;4.93;;
69621;SDS011;56841;55.964;37.674;2023-04-24T06:43:12;6.05;;;3.90;;
69621;SDS011;56841;55.964;37.674;2023-04-24T06:45:38;9.80;;;5.20;;
69621;SDS011;56841;55.964;37.674;2023-04-24T06:48:04;12.85;;;4.38;;
69621;SDS011;56841;55.964;37.674;2023-04-24T06:50:30;8.85;;;3.72;;
69621;SDS011;56841;55.964;37.674;2023-04-24T06:52:56;11.95;;;5.05;;
69621;SDS011;56841;55.964;37.674;2023-04-24T06:55:22;8.63;;;4.63;;
69621;SDS011;56841;55.964;37.674;2023-04-24T06:57:47;8.32;;;4.00;;
69621;SDS011;56841;55.964;37.674;2023-04-24T07:00:13;6.90;;;3.28;;
69621;SDS011;56841;55.964;37.674;2023-04-24T07:02:39;8.68;;;3.42;;
69621;SDS011;56841;55.964;37.674;2023-04-24T07:05:05;8.52;;;4.40;;
69621;SDS011;56841;55.964;37.674;2023-04-24T07:07:33;10.15;;;4.72;;
69621;SDS011;56841;55.964;37.674;2023-04-24T07:10:00;18.20;;;4.10;;
69621;SDS011;56841;55.964;37.674;2023-04-24T07:12:25;9.95;;;4.63;;
69621;SDS011;56841;55.964;37.674;2023-04-24T07:14:52;15.70;;;5.13;;
69621;SDS011;56841;55.964;37.674;2023-04-24T07:17:17;6.88;;;3.70;;
69621;SDS011;56841;55.964;37.674;2023-04-24T07:19:43;7.78;;;4.43;;
69621;SDS011;56841;55.964;37.674;2023-04-24T07:22:10;6.20;;;3.72;;
69621;SDS011;56841;55.964;37.674;2023-04-24T07:24:43;8.73;;;3.85;;
69621;SDS011;56841;55.964;37.674;2023-04-24T07:27:09;10.70;;;4.32;;
69621;SDS011;56841;55.964;37.674;2023-04-24T07:29:35;12.23;;;4.90;;
69621;SDS011;56841;55.964;37.674;2023-04-24T07:32:00;10.20;;;4.47;;
69621;SDS011;56841;55.964;37.674;2023-04-24T07:34:27;13.25;;;5.05;;
69621;SDS011;56841;55.964;37.674;2023-04-24T07:36:52;10.55;;;3.88;;
69621;SDS011;56841;55.964;37.674;2023-04-24T07:39:18;6.63;;;3.55;;
69621;SDS011;56841;55.964;37.674;2023-04-24T07:41:44;8.90;;;4.20;;
69621;SDS011;56841;55.964;37.674;2023-04-24T07:44:10;9.82;;;4.00;;
69621;SDS011;56841;55.964;37.674;2023-04-24T07:46:36;9.57;;;3.45;;
69621;SDS011;56841;55.964;37.674;2023-04-24T07:49:02;10.70;;;4.65;;
69621;SDS011;56841;55.964;37.674;2023-04-24T07:51:28;9.05;;;4.70;;
69621;SDS011;56841;55.964;37.674;2023-04-24T07:53:54;8.45;;;4.10;;
69621;SDS011;56841;55.964;37.674;2023-04-24T07:56:20;6.47;;;3.22;;
69621;SDS011;56841;55.964;37.674;2023-04-24T07:58:46;8.50;;;4.22;;
69621;SDS011;56841;55.964;37.674;2023-04-24T08:01:13;7.63;;;4.03;;
69621;SDS011;56841;55.964;37.674;2023-04-24T08:03:38;10.35;;;4.50;;
69621;SDS011;56841;55.964;37.674;2023-04-24T08:06:04;10.95;;;4.68;;
69621;SDS011;56841;55.964;37.674;2023-04-24T08:08:30;9.50;;;4.75;;
69621;SDS011;56841;55.964;37.674;2023-04-24T08:10:56;5.53;;;3.60;;
69621;SDS011;56841;55.964;37.674;2023-04-24T08:13:22;11.32;;;3.42;;
69621;SDS011;56841;55.964;37.674;2023-04-24T08:15:48;8.73;;;4.00;;
69621;SDS011;56841;55.964;37.674;2023-04-24T08:18:13;16.05;;;4.10;;
69621;SDS011;56841;55.964;37.674;2023-04-24T08:20:41;8.07;;;3.60;;
69621;SDS011;56841;55.964;37.674;2023-04-24T08:23:07;9.05;;;4.43;;
69621;SDS011;56841;55.964;37.674;2023-04-24T08:25:32;7.57;;;3.03;;
69621;SDS011;56841;55.964;37.674;2023-04-24T08:28:01;9.05;;;4.25;;
69621;SDS011;56841;55.964;37.674;2023-04-24T08:30:28;8.75;;;4.60;;
69621;SDS011;56841;55.964;37.674;2023-04-24T08:32:54;9.85;;;3.53;;
69621;SDS011;56841;55.964;37.674;2023-04-24T08:35:20;5.95;;;3.65;;
69621;SDS011;56841;55.964;37.674;2023-04-24T08:37:46;11.48;;;4.57;;
69621;SDS011;56841;55.964;37.674;2023-04-24T08:40:13;9.48;;;4.50;;
69621;SDS011;56841;55.964;37.674;2023-04-24T08:42:43;7.85;;;4.00;;
69621;SDS011;56841;55.964;37.674;2023-04-24T08:45:10;5.65;;;3.17;;
69621;SDS011;56841;55.964;37.674;2023-04-24T08:47:37;9.13;;;3.80;;
69621;SDS011;56841;55.964;37.674;2023-04-24T08:50:04;7.03;;;3.25;;
69621;SDS011;56841;55.964;37.674;2023-04-24T08:52:34;10.13;;;4.90;;
69621;SDS011;56841;55.964;37.674;2023-04-24T08:55:00;12.02;;;4.35;;
69621;SDS011;56841;55.964;37.674;2023-04-24T08:57:30;9.32;;;4.47;;
69621;SDS011;56841;55.964;37.674;2023-04-24T08:59:57;8.55;;;4.65;;
69621;SDS011;56841;55.964;37.674;2023-04-24T09:02:23;7.65;;;3.95;;
69621;SDS011;56841;55.964;37.674;2023-04-24T09:04:51;10.07;;;3.92;;
69621;SDS011;56841;55.964;37.674;2023-04-24T09:07:18;7.60;;;4.47;;
69621;SDS011;56841;55.964;37.674;2023-04-24T09:09:45;7.90;;;4.47;;
69621;SDS011;56841;55.964;37.674;2023-04-24T09:12:11;12.07;;;4.70;;
69621;SDS011;56841;55.964;37.674;2023-04-24T09:14:37;8.13;;;5.10;;
69621;SDS011;56841;55.964;37.674;2023-04-24T09:17:11;13.18;;;5.07;;
69621;SDS011;56841;55.964;37.674;2023-04-24T09:19:37;14.32;;;5.13;;
69621;SDS011;56841;55.964;37.674;2023-04-24T09:22:06;12.02;;;4.70;;
69621;SDS011;56841;55.964;37.674;2023-04-24T09:24:34;7.35;;;4.25;;
69621;SDS011;56841;55.964;37.674;2023-04-24T09:27:03;10.70;;;4.78;;
69621;SDS011;56841;55.964;37.674;2023-04-24T09:29:29;7.10;;;3.50;;
69621;SDS011;56841;55.964;37.674;2023-04-24T09:31:57;10.95;;;4.90;;
69621;SDS011;56841;55.964;37.674;2023-04-24T09:34:23;11.05;;;4.00;;
69621;SDS011;56841;55.964;37.674;2023-04-24T09:36:50;8.05;;;4.85;;
69621;SDS011;56841;55.964;37.674;2023-04-24T09:39:16;9.60;;;4.10;;
69621;SDS011;56841;55.964;37.674;2023-04-24T09:41:51;7.03;;;4.57;;
69621;SDS011;56841;55.964;37.674;2023-04-24T09:44:24;8.07;;;4.18;;
69621;SDS011;56841;55.964;37.674;2023-04-24T09:46:52;9.45;;;4.78;;
69621;SDS011;56841;55.964;37.674;2023-04-24T09:51:49;7.07;;;3.65;;
69621;SDS011;56841;55.964;37.674;2023-04-24T09:54:16;10.40;;;4.65;;
69621;SDS011;56841;55.964;37.674;2023-04-24T09:56:44;8.68;;;4.72;;
69621;SDS011;56841;55.964;37.674;2023-04-24T09:59:11;13.57;;;5.30;;
69621;SDS011;56841;55.964;37.674;2023-04-24T10:01:37;10.35;;;4.68;;
69621;SDS011;56841;55.964;37.674;2023-04-24T10:04:07;7.28;;;3.58;;
69621;SDS011;56841;55.964;37.674;2023-04-24T10:06:50;7.90;;;4.18;;
69621;SDS011;56841;55.964;37.674;2023-04-24T10:09:18;7.38;;;3.90;;
69621;SDS011;56841;55.964;37.674;2023-04-24T10:11:46;10.40;;;4.95;;
69621;SDS011;56841;55.964;37.674;2023-04-24T10:14:18;8.95;;;5.07;;
69621;SDS011;56841;55.964;37.674;2023-04-24T10:16:49;5.50;;;3.28;;
69621;SDS011;56841;55.964;37.674;2023-04-24T10:19:16;9.07;;;4.55;;
69621;SDS011;56841;55.964;37.674;2023-04-24T10:21:45;9.20;;;4.72;;
69621;SDS011;56841;55.964;37.674;2023-04-24T10:24:13;7.43;;;5.03;;
69621;SDS011;56841;55.964;37.674;2023-04-24T10:26:40;7.35;;;4.15;;
69621;SDS011;56841;55.964;37.674;2023-04-24T10:29:06;8.38;;;5.07;;
69621;SDS011;56841;55.964;37.674;2023-04-24T10:31:36;10.00;;;5.00;;
69621;SDS011;56841;55.964;37.674;2023-04-24T10:34:03;7.07;;;4.00;;
69621;SDS011;56841;55.964;37.674;2023-04-24T10:36:30;9.93;;;5.13;;
69621;SDS011;56841;55.964;37.674;2023-04-24T10:39:00;10.40;;;4.18;;
69621;SDS011;56841;55.964;37.674;2023-04-24T10:41:28;6.97;;;4.70;;
69621;SDS011;56841;55.964;37.674;2023-04-24T10:44:08;9.13;;;4.97;;
69621;SDS011;56841;55.964;37.674;2023-04-24T10:46:44;10.00;;;5.05;;
69621;SDS011;56841;55.964;37.674;2023-04-24T10:49:13;8.93;;;5.00;;
69621;SDS011;56841;55.964;37.674;2023-04-24T10:56:51;7.72;;;4.13;;
69621;SDS011;56841;55.964;37.674;2023-04-24T10:59:24;6.07;;;4.05;;
69621;SDS011;56841;55.964;37.674;2023-04-24T11:01:54;9.48;;;4.80;;
69621;SDS011;56841;55.964;37.674;2023-04-24T11:04:30;8.23;;;4.55;;
69621;SDS011;56841;55.964;37.674;2023-04-24T11:06:57;8.32;;;4.13;;
69621;SDS011;56841;55.964;37.674;2023-04-24T11:09:25;7.28;;;4.25;;
69621;SDS011;56841;55.964;37.674;2023-04-24T11:12:05;8.52;;;4.65;;
69621;SDS011;56841;55.964;37.674;2023-04-24T11:17:30;7.85;;;5.10;;
69621;SDS011;56841;55.964;37.674;2023-04-24T11:20:05;7.65;;;4.30;;
69621;SDS011;56841;55.964;37.674;2023-04-24T11:22:37;8.00;;;4.55;;
69621;SDS011;56841;55.964;37.674;2023-04-24T11:25:05;8.57;;;4.63;;
69621;SDS011;56841;55.964;37.674;2023-04-24T11:27:41;7.63;;;4.53;;
69621;SDS011;56841;55.964;37.674;2023-04-24T11:30:09;10.25;;;4.72;;
69621;SDS011;56841;55.964;37.674;2023-04-24T11:32:36;6.22;;;4.13;;
69621;SDS011;56841;55.964;37.674;2023-04-24T11:37:53;8.02;;;3.53;;
69621;SDS011;56841;55.964;37.674;2023-04-24T11:40:20;6.22;;;3.95;;
69621;SDS011;56841;55.964;37.674;2023-04-24T11:42:51;6.32;;;4.55;;
69621;SDS011;56841;55.964;37.674;2023-04-24T11:45:24;14.50;;;4.90;;
69621;SDS011;56841;55.964;37.674;2023-04-24T11:47:51;13.23;;;4.97;;
69621;SDS011;56841;55.964;37.674;2023-04-24T11:50:17;7.43;;;4.60;;
69621;SDS011;56841;55.964;37.674;2023-04-24T11:52:49;9.45;;;4.50;;
69621;SDS011;56841;55.964;37.674;2023-04-24T11:57:47;8.43;;;4.38;;
69621;SDS011;56841;55.964;37.674;2023-04-24T12:02:42;6.30;;;3.38;;
69621;SDS011;56841;55.964;37.674;2023-04-24T12:05:08;7.43;;;3.88;;
69621;SDS011;56841;55.964;37.674;2023-04-24T12:07:41;6.85;;;3.83;;
69621;SDS011;56841;55.964;37.674;2023-04-24T12:10:10;7.82;;;4.35;;
69621;SDS011;56841;55.964;37.674;2023-04-24T12:12:36;5.90;;;3.10;;
69621;SDS011;56841;55.964;37.674;2023-04-24T12:15:06;9.55;;;4.65;;
69621;SDS011;56841;55.964;37.674;2023-04-24T12:17:34;9.13;;;4.45;;
69621;SDS011;56841;55.964;37.674;2023-04-24T12:20:05;7.22;;;4.10;;
69621;SDS011;56841;55.964;37.674;2023-04-24T12:25:11;8.23;;;4.22;;
69621;SDS011;56841;55.964;37.674;2023-04-24T12:27:37;5.60;;;2.95;;
69621;SDS011;56841;55.964;37.674;2023-04-24T12:30:03;9.50;;;4.50;;
69621;SDS011;56841;55.964;37.674;2023-04-24T12:32:31;9.38;;;4.50;;
69621;SDS011;56841;55.964;37.674;2023-04-24T12:34:57;10.48;;;5.03;;
69621;SDS011;56841;55.964;37.674;2023-04-24T12:37:24;8.02;;;4.75;;
69621;SDS011;56841;55.964;37.674;2023-04-24T12:42:33;13.85;;;4.82;;
69621;SDS011;56841;55.964;37.674;2023-04-24T12:45:04;5.05;;;3.33;;
69621;SDS011;56841;55.964;37.674;2023-04-24T12:47:32;9.77;;;4.43;;
69621;SDS011;56841;55.964;37.674;2023-04-24T12:49:58;11.52;;;4.10;;
69621;SDS011;56841;55.964;37.674;2023-04-24T12:52:25;8.05;;;3.95;;
69621;SDS011;56841;55.964;37.674;2023-04-24T12:54:52;7.78;;;3.88;;
69621;SDS011;56841;55.964;37.674;2023-04-24T12:57:20;11.70;;;4.45;;
69621;SDS011;56841;55.964;37.674;2023-04-24T12:59:48;5.93;;;3.10;;
69621;SDS011;56841;55.964;37.674;2023-04-24T13:02:13;7.25;;;3.10;;
69621;SDS011;56841;55.964;37.674;2023-04-24T13:04:46;7.28;;;4.00;;
69621;SDS011;56841;55.964;37.674;2023-04-24T13:07:12;7.40;;;4.50;;
69621;SDS011;56841;55.964;37.674;2023-04-24T13:09:40;8.52;;;4.28;;
69621;SDS011;56841;55.964;37.674;2023-04-24T13:12:07;7.60;;;4.15;;
69621;SDS011;56841;55.964;37.674;2023-04-24T13:14:33;5.40;;;3.47;;
69621;SDS011;56841;55.964;37.674;2023-04-24T13:17:00;6.35;;;3.67;;
69621;SDS011;56841;55.964;37.674;2023-04-24T13:19:26;11.40;;;4.68;;
69621;SDS011;56841;55.964;37.674;2023-04-24T13:21:56;9.35;;;4.35;;
69621;SDS011;56841;55.964;37.674;2023-04-24T13:24:22;9.32;;;4.28;;
69621;SDS011;56841;55.964;37.674;2023-04-24T13:26:52;9.15;;;2.95;;
69621;SDS011;56841;55.964;37.674;2023-04-24T13:29:18;9.10;;;3.88;;
69621;SDS011;56841;55.964;37.674;2023-04-24T13:31:51;8.68;;;3.95;;
69621;SDS011;56841;55.964;37.674;2023-04-24T13:34:20;8.07;;;4.32;;
69621;SDS011;56841;55.964;37.674;2023-04-24T13:36:46;10.40;;;4.75;;
69621;SDS011;56841;55.964;37.674;2023-04-24T13:39:12;9.48;;;4.75;;
69621;SDS011;56841;55.964;37.674;2023-04-24T13:41:38;7.32;;;4.07;;
69621;SDS011;56841;55.964;37.674;2023-04-24T13:44:05;9.55;;;4.10;;
69621;SDS011;56841;55.964;37.674;2023-04-24T13:46:31;10.55;;;3.55;;
69621;SDS011;56841;55.964;37.674;2023-04-24T13:48:57;5.95;;;3.40;;
69621;SDS011;56841;55.964;37.674;2023-04-24T13:51:23;10.43;;;4.20;;
69621;SDS011;56841;55.964;37.674;2023-04-24T13:53:52;9.32;;;3.30;;
69621;SDS011;56841;55.964;37.674;2023-04-24T13:56:19;8.70;;;4.30;;
69621;SDS011;56841;55.964;37.674;2023-04-24T13:58:45;7.55;;;4.30;;
69621;SDS011;56841;55.964;37.674;2023-04-24T14:01:12;7.07;;;3.60;;
69621;SDS011;56841;55.964;37.674;2023-04-24T14:03:38;12.18;;;4.30;;
69621;SDS011;56841;55.964;37.674;2023-04-24T14:06:04;6.72;;;3.85;;
69621;SDS011;56841;55.964;37.674;2023-04-24T14:08:31;5.95;;;3.60;;
69621;SDS011;56841;55.964;37.674;2023-04-24T14:10:57;8.85;;;4.10;;
69621;SDS011;56841;55.964;37.674;2023-04-24T14:13:24;11.30;;;4.28;;
69621;SDS011;56841;55.964;37.674;2023-04-24T14:15:50;11.35;;;3.80;;
69621;SDS011;56841;55.964;37.674;2023-04-24T14:18:18;11.50;;;4.40;;
69621;SDS011;56841;55.964;37.674;2023-04-24T14:20:44;8.25;;;4.10;;
69621;SDS011;56841;55.964;37.674;2023-04-24T14:23:10;9.00;;;5.45;;
69621;SDS011;56841;55.964;37.674;2023-04-24T14:25:36;10.25;;;4.57;;
69621;SDS011;56841;55.964;37.674;2023-04-24T14:28:02;8.77;;;4.65;;
69621;SDS011;56841;55.964;37.674;2023-04-24T14:30:29;8.02;;;4.70;;
69621;SDS011;56841;55.964;37.674;2023-04-24T14:32:55;7.85;;;4.32;;
69621;SDS011;56841;55.964;37.674;2023-04-24T14:35:21;9.93;;;4.45;;
69621;SDS011;56841;55.964;37.674;2023-04-24T14:37:47;9.98;;;4.18;;
69621;SDS011;56841;55.964;37.674;2023-04-24T14:40:13;7.57;;;4.15;;
69621;SDS011;56841;55.964;37.674;2023-04-24T14:42:39;7.80;;;3.97;;
69621;SDS011;56841;55.964;37.674;2023-04-24T14:45:06;9.32;;;3.63;;
69621;SDS011;56841;55.964;37.674;2023-04-24T14:47:33;7.03;;;4.18;;
69621;SDS011;56841;55.964;37.674;2023-04-24T14:49:59;7.25;;;3.90;;